Time;durP1;ratioP1;P1;durP2;ratioP2;P2;SDS_P1;SDS_P2;PMS_P1;PMS_P2;Temp;Humidity;BMP_temperature;BMP_pressure;BME280_temperature;BME280_humidity;BME280_pressure;Samples;Min_cycle;Max_cycle;Signal;HPM_P1;HPM_P2
2022/08/24 00:01:24;;;;;;;13.32;9.38;;;20.60;99.90;;;;;;5002267;28;20065;-74
2022/08/24 00:03:49;;;;;;;16.88;9.95;;;20.60;99.90;;;;;;4996895;28;20038;-74
2022/08/24 00:06:18;;;;;;;;;;;20.60;99.90;;;;;;5002390;28;20482;-74
2022/08/24 00:08:44;;;;;;;15.82;9.75;;;20.50;99.90;;;;;;4994249;28;19929;-75
2022/08/24 00:11:13;;;;;;;16.17;9.82;;;20.50;99.90;;;;;;5001466;28;20042;-74
2022/08/24 00:13:39;;;;;;;15.88;10.13;;;20.50;99.90;;;;;;4984950;28;20074;-74
2022/08/24 00:16:06;;;;;;;16.48;10.32;;;20.40;99.90;;;;;;4996273;28;20128;-74
2022/08/24 00:18:32;;;;;;;17.17;10.75;;;20.30;99.90;;;;;;4983712;28;20674;-74
2022/08/24 00:20:58;;;;;;;14.68;11.05;;;20.30;99.90;;;;;;5003176;28;20038;-74
2022/08/24 00:23:24;;;;;;;14.88;9.50;;;20.30;99.90;;;;;;4983963;28;20088;-74
2022/08/24 00:25:52;;;;;;;17.63;10.38;;;20.30;99.90;;;;;;5001694;28;20076;-74
2022/08/24 00:28:18;;;;;;;18.85;11.27;;;20.30;99.90;;;;;;5004172;28;20163;-74
2022/08/24 00:30:44;;;;;;;14.63;9.65;;;20.20;99.90;;;;;;5003903;28;20038;-73
2022/08/24 00:33:10;;;;;;;11.18;8.70;;;20.20;99.90;;;;;;5007859;28;20106;-73
2022/08/24 00:35:35;;;;;;;18.27;9.80;;;20.10;99.90;;;;;;5004726;28;20049;-74
2022/08/24 00:38:01;;;;;;;13.73;9.07;;;20.20;99.90;;;;;;5002793;28;20142;-74
2022/08/24 00:40:34;;;;;;;13.15;8.80;;;20.10;99.90;;;;;;4998744;28;20516;-74
2022/08/24 00:43:03;;;;;;;13.82;9.30;;;20.10;99.90;;;;;;5005587;28;20129;-74
2022/08/24 00:45:30;;;;;;;16.50;9.77;;;20.10;99.90;;;;;;5002805;28;20042;-74
2022/08/24 00:48:05;;;;;;;14.52;8.65;;;20.00;99.90;;;;;;5003930;28;20042;-73
2022/08/24 00:50:43;;;;;;;11.82;8.52;;;20.00;99.90;;;;;;4985589;28;20097;-74
2022/08/24 00:53:31;;;;;;;11.68;8.05;;;20.00;99.90;;;;;;5005025;28;20060;-74
2022/08/24 00:56:01;;;;;;;15.25;9.02;;;20.00;99.90;;;;;;5004368;28;20038;-74
2022/08/24 00:58:40;;;;;;;12.48;8.27;;;20.00;99.90;;;;;;4981638;28;20072;-74
2022/08/24 01:01:08;;;;;;;11.68;7.75;;;19.90;99.90;;;;;;4978341;28;20574;-73
2022/08/24 01:03:36;;;;;;;12.52;8.55;;;19.90;99.90;;;;;;5003367;28;20433;-74
2022/08/24 01:06:02;;;;;;;13.20;8.05;;;19.80;99.90;;;;;;5003745;28;20226;-74
2022/08/24 01:08:28;;;;;;;10.93;7.68;;;19.80;99.90;;;;;;5003190;28;20148;-74
2022/08/24 01:11:01;;;;;;;;;;;19.80;99.90;;;;;;5005029;28;20052;-74
2022/08/24 01:13:31;;;;;;;12.88;7.70;;;19.80;99.90;;;;;;4998676;28;19921;-74
2022/08/24 01:16:02;;;;;;;11.40;7.32;;;19.70;99.90;;;;;;4981635;28;20111;-74
2022/08/24 01:21:19;;;;;;;11.07;7.45;;;19.70;99.90;;;;;;4995641;28;20100;-84
2022/08/24 01:23:59;;;;;;;11.68;7.50;;;19.70;99.90;;;;;;4997319;28;20038;-83
2022/08/24 01:26:34;;;;;;;13.82;8.02;;;19.60;99.90;;;;;;4998797;28;20501;-84
2022/08/24 01:29:04;;;;;;;13.70;8.60;;;19.60;99.90;;;;;;4975444;28;20116;-82
2022/08/24 01:31:31;;;;;;;16.98;8.85;;;19.60;99.90;;;;;;5011761;28;20078;-86
2022/08/24 01:33:56;;;;;;;14.20;8.32;;;19.50;99.90;;;;;;4971544;28;20038;-85
2022/08/24 01:36:41;;;;;;;13.98;8.38;;;19.50;99.90;;;;;;4985081;28;20099;-85
2022/08/24 01:39:24;;;;;;;13.10;8.77;;;19.50;99.90;;;;;;5008440;28;20129;-83
2022/08/24 01:41:52;;;;;;;12.38;8.27;;;19.50;99.90;;;;;;4975166;28;20053;-84
2022/08/24 01:44:20;;;;;;;13.02;9.15;;;19.50;99.90;;;;;;4980032;28;20045;-85
2022/08/24 01:46:53;;;;;;;14.60;8.82;;;19.40;99.90;;;;;;4979949;28;20060;-84
2022/08/24 01:49:21;;;;;;;14.60;9.48;;;19.40;99.90;;;;;;4977357;28;20052;-83
2022/08/24 01:51:52;;;;;;;16.95;9.48;;;19.40;99.90;;;;;;5014062;28;20042;-84
2022/08/24 01:54:18;;;;;;;17.63;10.07;;;19.40;99.90;;;;;;4994396;28;20251;-83
2022/08/24 01:56:44;;;;;;;15.65;9.75;;;19.30;99.90;;;;;;5006117;28;20124;-84
2022/08/24 01:59:13;;;;;;;18.35;11.18;;;19.30;99.90;;;;;;4975494;28;20077;-83
2022/08/24 02:01:42;;;;;;;16.50;10.75;;;19.40;99.90;;;;;;4986368;28;20665;-83
2022/08/24 02:04:08;;;;;;;16.27;11.15;;;19.30;99.90;;;;;;4987761;28;20208;-83
2022/08/24 02:06:37;;;;;;;;;;;19.30;99.90;;;;;;4991534;28;20034;-86
2022/08/24 02:09:23;;;;;;;18.27;11.55;;;19.30;99.90;;;;;;4989908;28;19957;-84
2022/08/24 02:11:52;;;;;;;18.05;11.35;;;19.20;99.90;;;;;;4988331;28;20050;-84
2022/08/24 02:14:19;;;;;;;19.65;10.98;;;19.20;99.90;;;;;;4990550;28;20038;-84
2022/08/24 02:16:47;;;;;;;16.65;10.38;;;19.20;99.90;;;;;;5009345;28;20034;-84
2022/08/24 02:19:15;;;;;;;18.52;11.55;;;19.20;99.90;;;;;;5007977;28;20422;-84
2022/08/24 02:21:45;;;;;;;21.00;12.07;;;19.20;99.90;;;;;;4977275;28;20519;-85
2022/08/24 02:24:14;;;;;;;19.70;12.07;;;19.20;99.90;;;;;;4992674;28;20501;-83
2022/08/24 02:26:44;;;;;;;19.95;12.77;;;19.20;99.90;;;;;;4979116;28;20033;-85
2022/08/24 02:29:18;;;;;;;20.27;11.95;;;19.30;99.90;;;;;;5012161;28;20484;-85
2022/08/24 02:31:52;;;;;;;20.92;12.73;;;19.20;99.90;;;;;;5022088;28;20069;-83
2022/08/24 02:34:18;;;;;;;19.27;12.95;;;19.20;99.90;;;;;;4977582;28;20529;-84
2022/08/24 02:36:47;;;;;;;20.67;13.00;;;19.20;99.90;;;;;;5005557;28;20049;-84
2022/08/24 02:39:15;;;;;;;22.52;13.75;;;19.10;99.90;;;;;;4991147;28;20038;-84
2022/08/24 02:41:44;;;;;;;22.88;13.48;;;19.10;99.90;;;;;;4995903;28;20335;-83
2022/08/24 02:44:15;;;;;;;25.90;14.77;;;19.10;99.90;;;;;;5008513;28;20045;-83
2022/08/24 02:46:44;;;;;;;24.55;14.15;;;19.10;99.90;;;;;;4966740;28;20046;-84
2022/08/24 02:49:22;;;;;;;20.98;13.27;;;19.10;99.90;;;;;;5004182;28;20232;-85
2022/08/24 02:51:47;;;;;;;21.15;14.63;;;19.10;99.90;;;;;;5023957;28;20137;-83
2022/08/24 02:54:16;;;;;;;24.30;14.93;;;19.10;99.90;;;;;;4991696;28;20201;-85
2022/08/24 02:56:46;;;;;;;20.33;13.65;;;19.10;99.90;;;;;;4975251;28;20049;-85
2022/08/24 02:59:19;;;;;;;21.92;14.85;;;19.10;99.90;;;;;;4971867;28;20069;-84
2022/08/24 03:01:49;;;;;;;18.63;13.07;;;19.10;99.90;;;;;;4988545;28;20118;-83
2022/08/24 03:04:15;;;;;;;20.40;13.50;;;19.10;99.90;;;;;;4996420;28;20044;-83
2022/08/24 03:06:43;;;;;;;20.25;12.95;;;19.20;99.90;;;;;;5008744;28;20113;-84
2022/08/24 03:09:13;;;;;;;21.95;13.00;;;19.10;99.90;;;;;;4996401;28;20350;-83
2022/08/24 03:11:38;;;;;;;21.50;12.50;;;19.10;99.90;;;;;;5010605;28;20050;-84
2022/08/24 03:14:04;;;;;;;19.52;13.02;;;19.20;99.90;;;;;;4979206;28;20049;-85
2022/08/24 03:16:31;;;;;;;21.40;13.38;;;19.20;99.90;;;;;;5013746;28;20050;-86
2022/08/24 03:18:56;;;;;;;;;;;19.10;99.90;;;;;;4992676;28;20069;-83
2022/08/24 03:21:22;;;;;;;20.70;12.80;;;19.10;99.90;;;;;;4982103;28;20554;-84
2022/08/24 03:23:50;;;;;;;18.27;11.60;;;19.10;99.90;;;;;;5008212;28;20126;-84
2022/08/24 03:26:16;;;;;;;22.55;13.55;;;19.10;99.90;;;;;;4995147;28;20038;-84
2022/08/24 03:28:49;;;;;;;18.33;11.93;;;19.10;99.90;;;;;;5009182;28;20508;-84
2022/08/24 03:31:18;;;;;;;18.90;12.27;;;19.10;99.90;;;;;;4980425;28;20042;-84
2022/08/24 03:33:44;;;;;;;21.17;13.07;;;19.00;99.90;;;;;;4981295;28;20374;-83
2022/08/24 03:36:13;;;;;;;19.33;12.68;;;19.10;99.90;;;;;;4993272;28;20081;-84
2022/08/24 03:38:39;;;;;;;19.60;13.15;;;19.10;99.90;;;;;;5012736;28;20042;-84
2022/08/24 03:41:07;;;;;;;19.15;12.45;;;19.00;99.90;;;;;;5012869;28;20088;-84
2022/08/24 03:43:45;;;;;;;18.30;12.13;;;19.10;99.90;;;;;;4993178;28;20412;-83
2022/08/24 03:46:17;;;;;;;19.58;12.23;;;19.00;99.90;;;;;;5012496;28;22075;-83
2022/08/24 03:49:00;;;;;;;19.27;13.73;;;18.90;99.90;;;;;;4980066;28;20451;-84
2022/08/24 03:51:27;;;;;;;19.83;14.07;;;19.00;99.90;;;;;;4981499;28;20045;-84
2022/08/24 03:53:54;;;;;;;19.67;13.40;;;18.90;99.90;;;;;;4979803;28;20129;-84
2022/08/24 03:56:20;;;;;;;19.73;13.63;;;18.90;99.90;;;;;;4986889;28;20038;-84
2022/08/24 03:58:46;;;;;;;23.13;13.40;;;18.90;99.90;;;;;;4998964;28;20041;-84
2022/08/24 04:01:21;;;;;;;20.75;13.32;;;19.00;99.90;;;;;;4994699;28;20521;-84
2022/08/24 04:03:55;;;;;;;19.25;12.10;;;18.90;99.90;;;;;;4992329;28;20034;-84
2022/08/24 04:06:22;;;;;;;21.13;13.32;;;18.90;99.90;;;;;;4974970;28;20073;-83
2022/08/24 04:08:52;;;;;;;20.92;13.68;;;18.80;99.90;;;;;;4978321;28;20050;-84
2022/08/24 04:11:24;;;;;;;19.40;13.40;;;18.80;99.90;;;;;;5008563;28;20056;-84
2022/08/24 04:13:55;;;;;;;22.88;14.23;;;18.80;99.90;;;;;;4992148;28;20045;-84
2022/08/24 04:16:22;;;;;;;19.05;13.07;;;18.80;99.90;;;;;;5008812;28;20049;-84
2022/08/24 04:18:49;;;;;;;20.40;14.40;;;18.80;99.90;;;;;;4992040;28;20085;-85
2022/08/24 04:21:25;;;;;;;23.35;13.82;;;18.70;99.90;;;;;;4978886;28;20046;-84
2022/08/24 04:23:51;;;;;;;22.45;14.98;;;18.60;99.90;;;;;;5017096;28;20042;-84
2022/08/24 04:26:26;;;;;;;18.65;13.60;;;18.70;99.90;;;;;;4994163;28;20104;-84
2022/08/24 04:28:52;;;;;;;20.63;13.02;;;18.60;99.90;;;;;;5008599;28;20048;-81
2022/08/24 04:31:18;;;;;;;21.83;12.32;;;18.70;99.90;;;;;;4979473;28;20033;-83
2022/08/24 04:33:48;;;;;;;18.50;12.60;;;18.70;99.90;;;;;;4992036;28;20091;-83
2022/08/24 04:36:19;;;;;;;20.55;12.95;;;18.70;99.90;;;;;;4975507;28;20045;-82
2022/08/24 04:38:46;;;;;;;20.00;12.82;;;18.70;99.90;;;;;;5010639;28;20030;-83
2022/08/24 04:41:18;;;;;;;20.70;12.45;;;18.70;99.90;;;;;;4991091;28;20070;-85
2022/08/24 04:43:45;;;;;;;21.15;13.07;;;18.70;99.90;;;;;;4991748;28;20045;-83
2022/08/24 04:46:16;;;;;;;18.95;11.98;;;18.70;99.90;;;;;;5007932;28;20060;-83
2022/08/24 04:48:43;;;;;;;20.77;12.85;;;18.70;99.90;;;;;;4978654;28;20039;-84
2022/08/24 04:51:10;;;;;;;19.52;13.48;;;18.70;99.90;;;;;;4996884;28;20169;-83
2022/08/24 04:53:37;;;;;;;19.77;13.00;;;18.70;99.90;;;;;;4972741;28;20039;-84
2022/08/24 04:56:14;;;;;;;20.40;13.57;;;18.60;99.90;;;;;;5001701;28;20780;-84
2022/08/24 04:58:47;;;;;;;20.40;13.40;;;18.60;99.90;;;;;;4995283;28;20095;-85
2022/08/24 05:01:15;;;;;;;21.25;13.48;;;18.60;99.90;;;;;;4998522;28;20045;-84
2022/08/24 05:03:49;;;;;;;23.77;13.80;;;18.60;99.90;;;;;;4997753;28;20353;-83
2022/08/24 05:06:16;;;;;;;18.85;13.32;;;18.60;99.90;;;;;;5018447;28;20556;-83
2022/08/24 05:08:49;;;;;;;19.27;13.23;;;18.60;99.90;;;;;;5025024;28;20442;-83
2022/08/24 05:11:17;;;;;;;20.90;13.25;;;18.60;99.90;;;;;;5006327;28;20409;-84
2022/08/24 05:13:43;;;;;;;19.27;14.05;;;18.60;99.90;;;;;;4978559;28;20125;-84
2022/08/24 05:16:19;;;;;;;20.05;13.55;;;18.60;99.90;;;;;;4980020;28;20178;-84
2022/08/24 05:18:48;;;;;;;19.50;13.02;;;18.60;99.90;;;;;;4991646;28;20533;-83
2022/08/24 05:21:22;;;;;;;21.90;13.82;;;18.60;99.90;;;;;;4991320;28;20042;-83
2022/08/24 05:23:48;;;;;;;22.08;13.85;;;18.60;99.90;;;;;;4990844;28;20142;-83
2022/08/24 05:26:19;;;;;;;;;;;18.70;99.90;;;;;;4975264;28;20042;-84
2022/08/24 05:28:49;;;;;;;24.17;14.18;;;18.70;99.90;;;;;;5030653;28;19921;-83
2022/08/24 05:31:32;;;;;;;23.60;14.75;;;18.70;99.90;;;;;;4989726;28;20052;-83
2022/08/24 05:34:02;;;;;;;22.75;13.93;;;18.70;99.90;;;;;;5012121;28;20382;-83
2022/08/24 05:36:36;;;;;;;22.45;13.45;;;18.70;99.90;;;;;;4977876;28;20045;-84
2022/08/24 05:39:37;;;;;;;22.48;14.38;;;18.70;99.90;;;;;;4999471;28;20513;-86
2022/08/24 05:42:04;;;;;;;22.83;14.88;;;18.80;99.90;;;;;;5024365;28;20084;-82
2022/08/24 05:44:33;;;;;;;20.52;14.23;;;18.80;99.90;;;;;;4993106;28;20039;-84
2022/08/24 05:47:15;;;;;;;23.42;14.88;;;18.80;99.90;;;;;;4993622;28;20497;-83
2022/08/24 05:49:59;;;;;;;23.27;14.90;;;18.90;99.90;;;;;;4997592;28;20149;-83
2022/08/24 05:52:34;;;;;;;26.35;16.08;;;18.90;99.90;;;;;;4977178;28;20049;-84
2022/08/24 05:55:14;;;;;;;21.00;13.85;;;18.90;99.90;;;;;;5015152;28;20421;-84
2022/08/24 05:58:05;;;;;;;24.85;14.77;;;19.00;99.90;;;;;;5008799;28;20140;-83
2022/08/24 06:00:32;;;;;;;23.42;14.13;;;19.00;99.90;;;;;;4965965;28;20521;-84
2022/08/24 06:03:03;;;;;;;24.08;15.30;;;19.00;99.90;;;;;;4984123;28;20033;-87
2022/08/24 06:05:29;;;;;;;26.30;16.35;;;19.10;99.90;;;;;;5012728;28;20224;-84
2022/08/24 06:07:55;;;;;;;22.48;14.63;;;19.10;99.90;;;;;;4980777;28;20042;-84
2022/08/24 06:10:21;;;;;;;;;;;19.10;99.90;;;;;;5011268;28;20417;-86
2022/08/24 06:12:47;;;;;;;20.58;13.60;;;19.20;99.90;;;;;;5009514;28;19924;-84
2022/08/24 06:15:28;;;;;;;;;;;19.10;99.90;;;;;;5016869;28;20104;-84
2022/08/24 06:17:54;;;;;;;20.88;13.70;;;19.20;99.90;;;;;;4997405;28;19924;-83
2022/08/24 06:20:22;;;;;;;19.80;13.82;;;19.20;99.90;;;;;;5012578;28;20125;-84
2022/08/24 06:22:48;;;;;;;19.15;13.43;;;19.30;99.90;;;;;;4982251;28;20182;-84
2022/08/24 06:28:05;;;;;;;20.33;13.45;;;19.40;99.90;;;;;;5012590;28;20050;-85
2022/08/24 06:30:30;;;;;;;19.02;13.52;;;19.40;99.90;;;;;;5010248;28;20042;-83
2022/08/24 06:33:03;;;;;;;21.05;13.85;;;19.40;99.90;;;;;;4975361;28;20050;-83
2022/08/24 06:35:32;;;;;;;20.77;13.65;;;19.50;99.90;;;;;;4994743;28;20537;-83
2022/08/24 06:38:21;;;;;;;18.65;13.05;;;19.50;99.90;;;;;;4990882;28;20034;-83
2022/08/24 06:40:50;;;;;;;23.45;13.05;;;19.60;99.90;;;;;;4985243;28;20159;-83
2022/08/24 06:43:16;;;;;;;19.60;12.90;;;19.60;99.90;;;;;;5017934;28;20438;-85
2022/08/24 06:45:51;;;;;;;;;;;19.70;99.90;;;;;;4981307;28;20301;-84
2022/08/24 06:48:35;;;;;;;20.85;12.77;;;19.80;99.90;;;;;;5028795;28;20457;-84
2022/08/24 06:51:17;;;;;;;21.80;13.38;;;19.80;99.90;;;;;;4993962;28;20041;-85
2022/08/24 06:53:44;;;;;;;22.27;13.73;;;19.90;99.90;;;;;;5003325;28;20092;-84
2022/08/24 06:56:18;;;;;;;20.35;12.30;;;19.90;99.90;;;;;;4985937;28;20056;-86
2022/08/24 06:58:53;;;;;;;20.23;12.55;;;20.00;99.90;;;;;;4982539;28;20050;-84
2022/08/24 07:01:27;;;;;;;18.08;11.50;;;20.10;99.90;;;;;;4997458;28;20129;-84
2022/08/24 07:03:56;;;;;;;17.48;10.88;;;20.20;99.90;;;;;;4998209;28;20030;-84
2022/08/24 07:06:23;;;;;;;16.45;10.90;;;20.20;99.90;;;;;;4985444;28;20394;-85
2022/08/24 07:08:52;;;;;;;15.60;10.00;;;20.30;99.90;;;;;;4997687;28;20073;-85
2022/08/24 07:11:18;;;;;;;15.02;9.98;;;20.40;99.90;;;;;;5009935;28;20038;-84
2022/08/24 07:13:48;;;;;;;16.48;10.30;;;20.40;99.90;;;;;;4983663;28;20105;-87
2022/08/24 07:16:18;;;;;;;18.83;10.38;;;20.50;99.90;;;;;;5001021;28;20408;-86
2022/08/24 07:18:44;;;;;;;14.43;9.23;;;20.60;99.90;;;;;;5039719;23;20354;-76
2022/08/24 07:21:10;;;;;;;14.15;9.75;;;20.70;99.90;;;;;;5020101;28;20041;-77
2022/08/24 07:23:36;;;;;;;11.63;8.50;;;20.80;99.90;;;;;;5005235;28;20084;-76
2022/08/24 07:26:07;;;;;;;18.02;9.15;;;20.80;99.90;;;;;;5031157;28;20594;-76
2022/08/24 07:28:38;;;;;;;13.05;8.80;;;20.90;99.90;;;;;;4997622;28;20049;-76
2022/08/24 07:31:04;;;;;;;11.18;8.30;;;21.00;99.90;;;;;;5021317;28;20068;-76
2022/08/24 07:33:31;;;;;;;12.13;8.95;;;21.10;99.90;;;;;;5011672;28;20062;-76
2022/08/24 07:35:56;;;;;;;15.20;8.70;;;21.20;99.90;;;;;;4999383;28;20281;-76
2022/08/24 07:38:22;;;;;;;;;;;21.30;99.90;;;;;;5027808;28;20038;-76
2022/08/24 07:40:48;;;;;;;17.00;8.57;;;21.30;99.90;;;;;;4992938;28;20051;-76
2022/08/24 07:43:14;;;;;;;11.70;8.07;;;21.40;99.90;;;;;;5002035;28;20046;-77
2022/08/24 07:45:40;;;;;;;;;;;21.50;99.90;;;;;;5008368;28;20044;-76
2022/08/24 07:48:07;;;;;;;11.73;7.95;;;21.60;99.90;;;;;;4983738;28;19924;-76
2022/08/24 07:50:32;;;;;;;13.68;8.32;;;21.60;99.90;;;;;;5004845;28;20042;-76
2022/08/24 07:52:58;;;;;;;;;;;21.70;99.90;;;;;;5015456;28;20042;-76
2022/08/24 07:55:24;;;;;;;10.63;6.32;;;21.80;99.90;;;;;;5005111;28;19917;-76
2022/08/24 07:57:50;;;;;;;;;;;21.90;99.90;;;;;;5000748;28;20187;-76
2022/08/24 08:00:18;;;;;;;8.25;6.25;;;21.90;99.90;;;;;;5017544;28;20031;-77
2022/08/24 08:02:45;;;;;;;8.57;6.18;;;22.00;99.90;;;;;;5011414;28;20038;-77
2022/08/24 08:05:13;;;;;;;8.38;6.10;;;22.10;99.90;;;;;;5017861;28;20568;-77
2022/08/24 08:07:39;;;;;;;6.95;5.07;;;22.10;99.90;;;;;;4987275;28;20052;-76
2022/08/24 08:10:05;;;;;;;;;;;22.30;99.90;;;;;;5014463;28;20046;-77
2022/08/24 08:12:31;;;;;;;8.13;5.53;;;22.30;99.90;;;;;;5002491;28;19960;-77
2022/08/24 08:14:56;;;;;;;8.35;4.35;;;22.30;99.90;;;;;;4995376;28;20057;-75
2022/08/24 08:17:22;;;;;;;;;;;22.50;99.90;;;;;;5019011;28;20068;-76
2022/08/24 08:19:49;;;;;;;7.75;4.18;;;22.60;99.90;;;;;;4997997;28;20010;-77
2022/08/24 08:24:58;;;;;;;7.03;4.20;;;22.70;99.90;;;;;;5029435;28;20041;-76
2022/08/24 08:27:24;;;;;;;;;;;22.80;99.90;;;;;;5008212;28;20239;-76
2022/08/24 08:29:50;;;;;;;6.05;4.03;;;22.80;99.90;;;;;;5022482;28;19920;-76
2022/08/24 08:32:18;;;;;;;;;;;22.90;99.90;;;;;;5022972;28;20130;-76
2022/08/24 08:34:45;;;;;;;5.90;4.03;;;23.00;99.90;;;;;;5018122;28;20004;-76
2022/08/24 08:37:11;;;;;;;6.85;4.00;;;23.10;99.90;;;;;;5001732;28;20056;-76
2022/08/24 08:39:37;;;;;;;8.55;4.80;;;23.10;99.90;;;;;;5012379;28;20049;-76
2022/08/24 08:42:15;;;;;;;5.82;4.00;;;23.20;99.90;;;;;;5005756;28;20172;-75
2022/08/24 08:45:07;;;;;;;5.55;4.25;;;23.30;99.90;;;;;;5012970;28;20060;-76
2022/08/24 08:47:58;;;;;;;6.32;3.47;;;23.40;99.90;;;;;;5021911;28;20065;-76
2022/08/24 08:51:09;;;;;;;7.28;4.35;;;23.50;99.90;;;;;;5020417;28;20586;-75
2022/08/24 08:54:04;;;;;;;4.25;3.10;;;23.50;99.90;;;;;;5017069;28;20037;-77
2022/08/24 08:56:48;;;;;;;5.47;3.47;;;23.60;99.90;;;;;;5001568;28;20122;-75
2022/08/24 08:59:43;;;;;;;6.15;4.00;;;23.80;99.90;;;;;;5018655;28;20048;-76
2022/08/24 09:02:31;;;;;;;6.00;4.45;;;23.80;99.90;;;;;;5013865;28;20056;-76
2022/08/24 09:05:28;;;;;;;7.00;3.70;;;23.90;99.90;;;;;;5002811;28;20042;-76
2022/08/24 09:08:34;;;;;;;11.38;4.25;;;24.00;99.90;;;;;;5021777;28;20179;-76
2022/08/24 09:11:12;;;;;;;5.30;3.50;;;24.10;99.90;;;;;;4980689;28;20200;-75
2022/08/24 09:13:46;;;;;;;3.85;3.10;;;24.20;99.90;;;;;;5004498;28;20053;-76
2022/08/24 09:16:11;;;;;;;7.43;3.72;;;24.30;99.90;;;;;;5021156;28;20045;-76
2022/08/24 09:19:21;;;;;;;6.97;3.72;;;24.40;99.90;;;;;;5021325;28;20038;-76
2022/08/24 09:22:15;;;;;;;5.35;3.33;;;24.50;99.90;;;;;;4980951;28;20057;-76
2022/08/24 09:24:53;;;;;;;4.38;2.97;;;24.60;99.90;;;;;;5020703;28;20046;-76
2022/08/24 09:27:55;;;;;;;5.15;3.70;;;24.70;99.90;;;;;;5022696;28;20129;-76
2022/08/24 09:30:24;;;;;;;6.78;3.47;;;24.80;99.90;;;;;;4994158;28;20375;-76
2022/08/24 09:33:05;;;;;;;5.88;4.68;;;24.90;99.90;;;;;;5016332;28;20034;-76
2022/08/24 09:35:59;;;;;;;4.28;3.25;;;25.00;99.90;;;;;;5011398;28;20045;-75
2022/08/24 09:39:13;;;;;;;5.82;4.40;;;25.10;99.90;;;;;;5014002;28;20057;-75
2022/08/24 09:41:48;;;;;;;4.40;2.75;;;25.20;99.90;;;;;;4955425;28;20627;-77
2022/08/24 09:44:30;;;;;;;4.78;3.13;;;25.30;99.90;;;;;;4938074;28;20082;-76
2022/08/24 09:47:21;;;;;;;3.95;2.90;;;25.40;99.90;;;;;;4988271;28;20124;-76
2022/08/24 09:49:49;;;;;;;9.95;3.60;;;25.50;99.90;;;;;;5006185;28;20116;-76
2022/08/24 09:52:41;;;;;;;3.65;2.20;;;25.60;99.90;;;;;;5015063;28;20128;-77
2022/08/24 09:55:27;;;;;;;3.80;2.28;;;25.70;99.90;;;;;;5001618;28;20034;-76
2022/08/24 09:58:02;;;;;;;;;;;25.80;99.90;;;;;;4997265;28;20040;-76
2022/08/24 10:00:59;;;;;;;3.45;2.20;;;25.80;99.90;;;;;;5002706;28;20007;-76
2022/08/24 10:03:48;;;;;;;3.00;2.30;;;25.90;99.90;;;;;;4997505;28;20404;-76
2022/08/24 10:06:35;;;;;;;3.10;2.10;;;26.00;99.90;;;;;;5013558;28;20471;-77
2022/08/24 10:09:20;;;;;;;;;;;26.20;99.90;;;;;;4999755;28;20103;-76
2022/08/24 10:12:36;;;;;;;3.55;1.70;;;26.20;99.90;;;;;;4987049;28;19962;-76
2022/08/24 10:15:07;;;;;;;3.55;2.30;;;26.40;99.90;;;;;;4956778;28;20346;-76
2022/08/24 10:17:40;;;;;;;4.90;2.25;;;26.50;99.90;;;;;;4995822;28;20478;-76
2022/08/24 10:20:28;;;;;;;4.65;2.67;;;26.60;99.90;;;;;;5001261;28;20506;-76
2022/08/24 10:23:03;;;;;;;2.33;1.75;;;26.60;99.90;;;;;;5000404;28;20044;-76
2022/08/24 10:25:53;;;;;;;4.57;2.05;;;26.70;99.90;;;;;;4999275;28;20539;-76
2022/08/24 10:28:27;;;;;;;2.80;1.50;;;26.80;99.90;;;;;;5012715;28;20049;-76
2022/08/24 10:31:08;;;;;;;2.00;1.52;;;26.80;99.90;;;;;;5025340;28;20124;-76
2022/08/24 10:33:57;;;;;;;1.98;1.17;;;26.90;99.90;;;;;;5005260;28;20194;-76
2022/08/24 10:36:55;;;;;;;2.88;1.30;;;26.90;99.90;;;;;;5007931;28;20169;-76
2022/08/24 10:39:42;;;;;;;;;;;27.10;99.90;;;;;;5017019;28;20053;-76
2022/08/24 10:45:43;;;;;;;1.70;1.08;;;27.30;99.90;;;;;;5019583;28;20283;-77
2022/08/24 10:48:47;;;;;;;2.42;1.80;;;27.30;99.90;;;;;;5020556;28;20110;-76
2022/08/24 10:51:49;;;;;;;3.45;1.80;;;27.40;99.90;;;;;;4996573;28;20057;-76
2022/08/24 10:54:18;;;;;;;2.10;1.55;;;27.50;99.90;;;;;;5000617;28;20046;-76
2022/08/24 10:57:05;;;;;;;4.00;1.50;;;27.60;99.90;;;;;;5003740;28;20148;-76
2022/08/24 10:59:49;;;;;;;2.60;1.40;;;27.60;99.90;;;;;;4999551;28;20049;-76
2022/08/24 11:02:36;;;;;;;4.53;1.70;;;27.70;99.90;;;;;;5020094;28;20525;-76
2022/08/24 11:05:07;;;;;;;2.65;1.52;;;27.70;99.90;;;;;;5018453;28;20157;-76
2022/08/24 11:07:34;;;;;;;2.67;1.40;;;27.70;99.90;;;;;;4999963;28;20060;-76
2022/08/24 11:10:05;;;;;;;2.38;1.27;;;27.80;99.90;;;;;;5001207;28;20046;-77
2022/08/24 11:12:32;;;;;;;3.72;1.38;;;27.90;99.90;;;;;;5021410;28;20057;-76
2022/08/24 11:15:09;;;;;;;6.68;1.73;;;27.90;99.90;;;;;;5027135;28;20092;-76
2022/08/24 11:17:35;;;;;;;3.10;1.40;;;28.00;99.90;;;;;;5025431;28;20514;-76
2022/08/24 11:20:01;;;;;;;4.65;1.90;;;27.90;99.90;;;;;;5003396;28;20160;-76
2022/08/24 11:22:27;;;;;;;3.15;1.52;;;28.00;99.90;;;;;;5021283;28;20094;-76
2022/08/24 11:24:56;;;;;;;2.42;1.40;;;28.10;99.90;;;;;;5007004;28;20504;-76
2022/08/24 11:27:38;;;;;;;2.17;1.45;;;28.20;99.90;;;;;;5024513;28;20092;-76
2022/08/24 11:30:19;;;;;;;2.78;1.27;;;28.30;99.90;;;;;;5020082;28;20102;-76
2022/08/24 11:32:58;;;;;;;3.03;1.40;;;28.40;99.90;;;;;;5006267;28;20037;-76
2022/08/24 11:35:26;;;;;;;2.35;1.73;;;28.50;99.90;;;;;;4976083;28;20124;-77
2022/08/24 11:37:56;;;;;;;2.03;1.50;;;28.60;99.90;;;;;;5014927;28;20042;-77
2022/08/24 11:40:28;;;;;;;2.50;1.70;;;28.50;99.90;;;;;;4996112;28;20046;-76
2022/08/24 11:43:11;;;;;;;3.83;1.73;;;28.50;99.90;;;;;;5012255;28;20470;-76
2022/08/24 11:45:49;;;;;;;2.15;1.20;;;28.40;99.90;;;;;;5012974;28;20362;-76
2022/08/24 11:48:47;;;;;;;3.35;1.38;;;28.40;99.90;;;;;;5006548;28;20081;-76
2022/08/24 11:51:34;;;;;;;2.78;1.58;;;28.30;99.90;;;;;;5001402;28;20056;-76
2022/08/24 11:54:18;;;;;;;2.17;1.30;;;28.10;99.90;;;;;;5024180;28;20227;-76
2022/08/24 11:57:04;;;;;;;3.30;1.42;;;28.10;99.90;;;;;;5001030;28;20181;-76
2022/08/24 12:00:02;;;;;;;3.20;1.20;;;28.20;99.90;;;;;;5014681;28;20046;-76
2022/08/24 12:02:37;;;;;;;3.58;1.92;;;28.30;99.90;;;;;;5016452;28;20148;-77
2022/08/24 12:05:21;;;;;;;2.90;1.50;;;28.20;99.90;;;;;;5021455;28;20048;-76
2022/08/24 12:08:26;;;;;;;3.35;1.40;;;28.00;99.90;;;;;;5020819;28;20042;-76
2022/08/24 12:11:03;;;;;;;2.20;1.35;;;28.00;99.90;;;;;;5018734;28;20087;-76
2022/08/24 12:14:07;;;;;;;1.60;1.08;;;28.10;99.90;;;;;;5001495;28;20131;-76
2022/08/24 12:16:43;;;;;;;1.38;1.00;;;28.20;99.90;;;;;;5002397;28;20063;-76
2022/08/24 12:19:20;;;;;;;2.88;1.10;;;28.40;99.90;;;;;;5006459;28;20096;-76
2022/08/24 12:21:49;;;;;;;1.75;1.20;;;28.60;99.90;;;;;;4999953;28;20121;-76
2022/08/24 12:24:25;;;;;;;2.65;1.17;;;28.80;99.90;;;;;;4996831;28;20072;-76
2022/08/24 12:26:56;;;;;;;2.30;0.90;;;28.90;99.90;;;;;;5014005;28;20069;-77
2022/08/24 12:29:47;;;;;;;1.10;0.82;;;29.00;99.90;;;;;;5015273;28;20046;-78
2022/08/24 12:32:21;;;;;;;1.67;0.90;;;29.20;99.90;;;;;;5006843;28;20147;-77
2022/08/24 12:35:01;;;;;;;1.45;0.63;;;29.40;99.90;;;;;;5011495;28;20518;-78
2022/08/24 12:37:45;;;;;;;2.72;0.50;;;29.40;99.90;;;;;;5021241;28;20045;-77
2022/08/24 12:40:11;;;;;;;1.30;0.75;;;29.60;99.90;;;;;;5016530;28;20151;-76
2022/08/24 12:42:53;;;;;;;2.05;0.60;;;29.70;99.90;;;;;;5002751;28;20449;-76
2022/08/24 12:45:21;;;;;;;0.68;0.50;;;29.70;97.90;;;;;;4993480;28;20111;-77
2022/08/24 12:48:02;;;;;;;1.05;0.63;;;29.60;98.20;;;;;;4997717;28;20041;-76
2022/08/24 12:50:55;;;;;;;1.50;0.55;;;29.50;97.80;;;;;;5001574;28;20053;-77
2022/08/24 12:53:48;;;;;;;1.35;0.93;;;29.50;97.60;;;;;;5023770;28;20305;-76
2022/08/24 12:56:43;;;;;;;1.08;0.60;;;29.60;97.20;;;;;;5005633;28;20037;-76
2022/08/24 12:59:14;;;;;;;1.55;0.60;;;29.50;97.50;;;;;;5011135;28;20217;-76
2022/08/24 13:02:02;;;;;;;1.25;0.40;;;29.60;98.30;;;;;;5022385;28;20045;-76
2022/08/24 13:04:33;;;;;;;1.42;0.60;;;29.70;98.20;;;;;;5020960;28;20041;-77
2022/08/24 13:07:06;;;;;;;1.45;0.63;;;29.90;98.20;;;;;;5014784;28;20427;-76
2022/08/24 13:09:35;;;;;;;1.25;0.35;;;30.20;98.20;;;;;;5024487;28;20099;-77
2022/08/24 13:12:29;;;;;;;0.43;0.40;;;30.30;96.80;;;;;;4997384;28;20537;-77
2022/08/24 13:15:26;;;;;;;0.82;0.50;;;30.50;95.80;;;;;;5019717;28;20330;-76
2022/08/24 13:17:57;;;;;;;1.50;0.60;;;30.60;96.10;;;;;;4994312;28;20046;-77
2022/08/24 13:20:48;;;;;;;0.60;0.40;;;30.70;95.00;;;;;;5019126;28;20107;-76
2022/08/24 13:23:20;;;;;;;0.77;0.45;;;30.80;95.10;;;;;;5000696;28;20057;-77
2022/08/24 13:25:45;;;;;;;0.73;0.50;;;30.90;94.90;;;;;;5014314;28;20754;-77
2022/08/24 13:28:23;;;;;;;0.63;0.40;;;31.00;94.90;;;;;;4992113;28;20129;-77
2022/08/24 13:31:04;;;;;;;0.85;0.60;;;31.10;94.50;;;;;;4997760;28;20056;-77